NZQN/ZQN METAR and TAF weather

Enter ICAO airport designator
Station Type Date Time Source
NZQN METAR UTC NOAA

Error!


Station Type Date Time Source
NZQN Decoded METAR UTC NOAA

Error!

Station Type Date Time Source
NZQN TAF 2020/11/27 11:21 UTC NOAA

TAF NZQN 271103Z 2711/2805 19010KT 9999 FEW050
BECMG 2712/2714 VRB02KT
BECMG 2722/2800 27010KT

Example: see airport list